sensor_id;sensor_type;location;lat;lon;timestamp;temperature;humidity
16674;DHT22;8450;52.654;10.326;2024-01-25T00:00:25;7.20;99.90
16674;DHT22;8450;52.654;10.326;2024-01-25T00:02:50;7.10;99.90
16674;DHT22;8450;52.654;10.326;2024-01-25T00:05:16;7.10;99.90
16674;DHT22;8450;52.654;10.326;2024-01-25T00:07:46;7.10;99.90
16674;DHT22;8450;52.654;10.326;2024-01-25T00:10:11;7.00;99.90
16674;DHT22;8450;52.654;10.326;2024-01-25T00:12:37;7.00;99.90
16674;DHT22;8450;52.654;10.326;2024-01-25T00:15:03;7.00;99.90
16674;DHT22;8450;52.654;10.326;2024-01-25T00:17:29;7.00;99.90
16674;DHT22;8450;52.654;10.326;2024-01-25T00:19:54;7.10;99.90
16674;DHT22;8450;52.654;10.326;2024-01-25T00:22:20;7.00;99.90
16674;DHT22;8450;52.654;10.326;2024-01-25T00:24:45;7.00;99.90
16674;DHT22;8450;52.654;10.326;2024-01-25T00:27:11;7.10;99.90
16674;DHT22;8450;52.654;10.326;2024-01-25T00:29:36;7.10;99.90
16674;DHT22;8450;52.654;10.326;2024-01-25T00:32:02;7.10;99.90
16674;DHT22;8450;52.654;10.326;2024-01-25T00:34:28;7.10;99.90
16674;DHT22;8450;52.654;10.326;2024-01-25T00:36:54;7.10;99.90
16674;DHT22;8450;52.654;10.326;2024-01-25T00:39:20;7.20;99.90
16674;DHT22;8450;52.654;10.326;2024-01-25T00:41:51;7.10;99.90
16674;DHT22;8450;52.654;10.326;2024-01-25T00:44:17;7.10;99.90
16674;DHT22;8450;52.654;10.326;2024-01-25T00:46:43;7.10;99.90
16674;DHT22;8450;52.654;10.326;2024-01-25T00:49:12;7.10;99.90
16674;DHT22;8450;52.654;10.326;2024-01-25T00:51:43;7.00;99.90
16674;DHT22;8450;52.654;10.326;2024-01-25T00:54:10;7.10;99.90
16674;DHT22;8450;52.654;10.326;2024-01-25T00:56:36;7.10;99.90
16674;DHT22;8450;52.654;10.326;2024-01-25T00:59:02;7.00;99.90
16674;DHT22;8450;52.654;10.326;2024-01-25T01:01:28;7.00;99.90
16674;DHT22;8450;52.654;10.326;2024-01-25T01:03:55;7.10;99.90
16674;DHT22;8450;52.654;10.326;2024-01-25T01:06:22;7.00;99.90
16674;DHT22;8450;52.654;10.326;2024-01-25T01:08:48;7.10;99.90
16674;DHT22;8450;52.654;10.326;2024-01-25T01:11:14;7.10;99.90
16674;DHT22;8450;52.654;10.326;2024-01-25T01:13:39;7.00;99.90
16674;DHT22;8450;52.654;10.326;2024-01-25T01:16:05;7.10;99.90
16674;DHT22;8450;52.654;10.326;2024-01-25T01:18:31;7.00;99.90
16674;DHT22;8450;52.654;10.326;2024-01-25T01:20:56;7.10;99.90
16674;DHT22;8450;52.654;10.326;2024-01-25T01:23:22;7.00;99.90
16674;DHT22;8450;52.654;10.326;2024-01-25T01:25:48;7.00;99.90
16674;DHT22;8450;52.654;10.326;2024-01-25T01:28:13;7.00;99.90
16674;DHT22;8450;52.654;10.326;2024-01-25T01:30:39;7.10;99.90
16674;DHT22;8450;52.654;10.326;2024-01-25T01:33:08;7.00;99.90
16674;DHT22;8450;52.654;10.326;2024-01-25T01:35:33;7.00;99.90
16674;DHT22;8450;52.654;10.326;2024-01-25T01:37:59;7.00;99.90
16674;DHT22;8450;52.654;10.326;2024-01-25T01:40:24;7.00;99.90
16674;DHT22;8450;52.654;10.326;2024-01-25T01:42:50;7.00;99.90
16674;DHT22;8450;52.654;10.326;2024-01-25T01:45:16;7.00;99.90
16674;DHT22;8450;52.654;10.326;2024-01-25T01:47:42;7.00;99.90
16674;DHT22;8450;52.654;10.326;2024-01-25T01:50:08;6.90;99.90
16674;DHT22;8450;52.654;10.326;2024-01-25T01:52:35;6.90;99.90
16674;DHT22;8450;52.654;10.326;2024-01-25T01:55:01;6.90;99.90
16674;DHT22;8450;52.654;10.326;2024-01-25T01:57:26;6.90;99.90
16674;DHT22;8450;52.654;10.326;2024-01-25T01:59:52;7.00;99.90
16674;DHT22;8450;52.654;10.326;2024-01-25T02:02:18;7.00;99.90
16674;DHT22;8450;52.654;10.326;2024-01-25T02:04:44;6.90;99.90
16674;DHT22;8450;52.654;10.326;2024-01-25T02:07:10;6.90;99.90
16674;DHT22;8450;52.654;10.326;2024-01-25T02:09:36;7.00;99.90
16674;DHT22;8450;52.654;10.326;2024-01-25T02:12:02;7.00;99.90
16674;DHT22;8450;52.654;10.326;2024-01-25T02:14:28;7.10;99.90
16674;DHT22;8450;52.654;10.326;2024-01-25T02:16:54;7.00;99.90
16674;DHT22;8450;52.654;10.326;2024-01-25T02:19:19;7.00;99.90
16674;DHT22;8450;52.654;10.326;2024-01-25T02:21:45;7.00;99.90
16674;DHT22;8450;52.654;10.326;2024-01-25T02:24:10;7.10;99.90
16674;DHT22;8450;52.654;10.326;2024-01-25T02:26:36;7.00;99.90
16674;DHT22;8450;52.654;10.326;2024-01-25T02:29:02;7.10;99.90
16674;DHT22;8450;52.654;10.326;2024-01-25T02:31:30;7.00;99.90
16674;DHT22;8450;52.654;10.326;2024-01-25T02:33:56;7.00;99.90
16674;DHT22;8450;52.654;10.326;2024-01-25T02:36:24;7.00;99.90
16674;DHT22;8450;52.654;10.326;2024-01-25T02:38:50;7.00;99.90
16674;DHT22;8450;52.654;10.326;2024-01-25T02:41:16;7.00;99.90
16674;DHT22;8450;52.654;10.326;2024-01-25T02:43:41;7.00;99.90
16674;DHT22;8450;52.654;10.326;2024-01-25T02:46:07;6.90;99.90
16674;DHT22;8450;52.654;10.326;2024-01-25T02:48:33;6.90;99.90
16674;DHT22;8450;52.654;10.326;2024-01-25T02:50:59;6.90;99.90
16674;DHT22;8450;52.654;10.326;2024-01-25T02:53:24;6.90;99.90
16674;DHT22;8450;52.654;10.326;2024-01-25T02:55:50;7.00;99.90
16674;DHT22;8450;52.654;10.326;2024-01-25T02:58:15;6.90;99.90
16674;DHT22;8450;52.654;10.326;2024-01-25T03:00:41;6.90;99.90
16674;DHT22;8450;52.654;10.326;2024-01-25T03:03:06;6.90;99.90
16674;DHT22;8450;52.654;10.326;2024-01-25T03:05:32;6.90;99.90
16674;DHT22;8450;52.654;10.326;2024-01-25T03:07:58;6.90;99.90
16674;DHT22;8450;52.654;10.326;2024-01-25T03:10:23;7.00;99.90
16674;DHT22;8450;52.654;10.326;2024-01-25T03:12:49;6.90;99.90
16674;DHT22;8450;52.654;10.326;2024-01-25T03:15:14;6.90;99.90
16674;DHT22;8450;52.654;10.326;2024-01-25T03:17:40;6.90;99.90
16674;DHT22;8450;52.654;10.326;2024-01-25T03:20:06;6.90;99.90
16674;DHT22;8450;52.654;10.326;2024-01-25T03:22:32;6.90;99.90
16674;DHT22;8450;52.654;10.326;2024-01-25T03:24:58;6.90;99.90
16674;DHT22;8450;52.654;10.326;2024-01-25T03:27:23;6.90;99.90
16674;DHT22;8450;52.654;10.326;2024-01-25T03:29:49;6.90;99.90
16674;DHT22;8450;52.654;10.326;2024-01-25T03:32:14;6.90;99.90
16674;DHT22;8450;52.654;10.326;2024-01-25T03:34:40;6.90;99.90
16674;DHT22;8450;52.654;10.326;2024-01-25T03:37:05;6.90;99.90
16674;DHT22;8450;52.654;10.326;2024-01-25T03:39:31;6.90;99.90
16674;DHT22;8450;52.654;10.326;2024-01-25T03:41:57;6.90;99.90
16674;DHT22;8450;52.654;10.326;2024-01-25T03:44:22;6.90;99.90
16674;DHT22;8450;52.654;10.326;2024-01-25T03:46:48;6.80;99.90
16674;DHT22;8450;52.654;10.326;2024-01-25T03:49:13;6.90;99.90
16674;DHT22;8450;52.654;10.326;2024-01-25T03:51:39;6.80;99.90
16674;DHT22;8450;52.654;10.326;2024-01-25T03:54:04;6.80;99.90
16674;DHT22;8450;52.654;10.326;2024-01-25T03:56:30;6.80;99.90
16674;DHT22;8450;52.654;10.326;2024-01-25T03:58:55;6.80;99.90
16674;DHT22;8450;52.654;10.326;2024-01-25T04:01:21;6.80;99.90
16674;DHT22;8450;52.654;10.326;2024-01-25T04:03:46;6.80;99.90
16674;DHT22;8450;52.654;10.326;2024-01-25T04:06:12;6.80;99.90
16674;DHT22;8450;52.654;10.326;2024-01-25T04:08:37;6.80;99.90
16674;DHT22;8450;52.654;10.326;2024-01-25T04:11:03;6.80;99.90
16674;DHT22;8450;52.654;10.326;2024-01-25T04:13:29;6.80;99.90
16674;DHT22;8450;52.654;10.326;2024-01-25T04:15:54;6.80;99.90
16674;DHT22;8450;52.654;10.326;2024-01-25T04:18:20;6.80;99.90
16674;DHT22;8450;52.654;10.326;2024-01-25T04:20:45;6.80;99.90
16674;DHT22;8450;52.654;10.326;2024-01-25T04:23:12;6.80;99.90
16674;DHT22;8450;52.654;10.326;2024-01-25T04:25:38;6.70;99.90
16674;DHT22;8450;52.654;10.326;2024-01-25T04:28:03;6.80;99.90
16674;DHT22;8450;52.654;10.326;2024-01-25T04:30:29;6.80;99.90
16674;DHT22;8450;52.654;10.326;2024-01-25T04:32:56;6.80;99.90
16674;DHT22;8450;52.654;10.326;2024-01-25T04:35:21;6.70;99.90
16674;DHT22;8450;52.654;10.326;2024-01-25T04:37:47;6.70;99.90
16674;DHT22;8450;52.654;10.326;2024-01-25T04:40:13;6.70;99.90
16674;DHT22;8450;52.654;10.326;2024-01-25T04:42:38;6.80;99.90
16674;DHT22;8450;52.654;10.326;2024-01-25T04:45:04;6.70;99.90
16674;DHT22;8450;52.654;10.326;2024-01-25T04:47:30;6.70;99.90
16674;DHT22;8450;52.654;10.326;2024-01-25T04:49:56;6.70;99.90
16674;DHT22;8450;52.654;10.326;2024-01-25T04:52:21;6.70;99.90
16674;DHT22;8450;52.654;10.326;2024-01-25T04:54:47;6.60;99.90
16674;DHT22;8450;52.654;10.326;2024-01-25T04:57:12;6.70;99.90
16674;DHT22;8450;52.654;10.326;2024-01-25T04:59:38;6.70;99.90
16674;DHT22;8450;52.654;10.326;2024-01-25T05:02:04;6.70;99.90
16674;DHT22;8450;52.654;10.326;2024-01-25T05:04:29;6.70;99.90
16674;DHT22;8450;52.654;10.326;2024-01-25T05:06:57;6.70;99.90
16674;DHT22;8450;52.654;10.326;2024-01-25T05:09:22;6.70;99.90
16674;DHT22;8450;52.654;10.326;2024-01-25T05:11:48;6.70;99.90
16674;DHT22;8450;52.654;10.326;2024-01-25T05:14:13;6.70;99.90
16674;DHT22;8450;52.654;10.326;2024-01-25T05:16:39;6.70;99.90
16674;DHT22;8450;52.654;10.326;2024-01-25T05:19:05;6.60;99.90
16674;DHT22;8450;52.654;10.326;2024-01-25T05:21:30;6.60;99.90
16674;DHT22;8450;52.654;10.326;2024-01-25T05:23:56;6.60;99.90
16674;DHT22;8450;52.654;10.326;2024-01-25T05:26:22;6.60;99.90
16674;DHT22;8450;52.654;10.326;2024-01-25T05:28:47;6.60;99.90
16674;DHT22;8450;52.654;10.326;2024-01-25T05:31:13;6.60;99.90
16674;DHT22;8450;52.654;10.326;2024-01-25T05:33:42;6.60;99.90
16674;DHT22;8450;52.654;10.326;2024-01-25T05:36:08;6.60;99.90
16674;DHT22;8450;52.654;10.326;2024-01-25T05:38:35;6.60;99.90
16674;DHT22;8450;52.654;10.326;2024-01-25T05:41:00;6.60;99.90
16674;DHT22;8450;52.654;10.326;2024-01-25T05:43:26;6.60;99.90
16674;DHT22;8450;52.654;10.326;2024-01-25T05:45:51;6.60;99.90
16674;DHT22;8450;52.654;10.326;2024-01-25T05:48:17;6.60;99.90
16674;DHT22;8450;52.654;10.326;2024-01-25T05:50:43;6.60;99.90
16674;DHT22;8450;52.654;10.326;2024-01-25T05:53:08;6.60;99.90
16674;DHT22;8450;52.654;10.326;2024-01-25T05:55:34;6.60;99.90
16674;DHT22;8450;52.654;10.326;2024-01-25T05:58:00;6.60;99.90
16674;DHT22;8450;52.654;10.326;2024-01-25T06:00:25;6.60;99.90
16674;DHT22;8450;52.654;10.326;2024-01-25T06:02:51;6.60;99.90
16674;DHT22;8450;52.654;10.326;2024-01-25T06:05:16;6.50;99.90
16674;DHT22;8450;52.654;10.326;2024-01-25T06:07:42;6.50;99.90
16674;DHT22;8450;52.654;10.326;2024-01-25T06:10:08;6.50;99.90
16674;DHT22;8450;52.654;10.326;2024-01-25T06:12:34;6.50;99.90
16674;DHT22;8450;52.654;10.326;2024-01-25T06:14:59;6.50;99.90
16674;DHT22;8450;52.654;10.326;2024-01-25T06:17:25;6.50;99.90
16674;DHT22;8450;52.654;10.326;2024-01-25T06:19:50;6.50;99.90
16674;DHT22;8450;52.654;10.326;2024-01-25T06:22:16;6.50;99.90
16674;DHT22;8450;52.654;10.326;2024-01-25T06:24:43;6.50;99.90
16674;DHT22;8450;52.654;10.326;2024-01-25T06:27:10;6.50;99.90
16674;DHT22;8450;52.654;10.326;2024-01-25T06:29:35;6.50;99.90
16674;DHT22;8450;52.654;10.326;2024-01-25T06:32:01;6.50;99.90
16674;DHT22;8450;52.654;10.326;2024-01-25T06:34:26;6.50;99.90
16674;DHT22;8450;52.654;10.326;2024-01-25T06:36:52;6.50;99.90
16674;DHT22;8450;52.654;10.326;2024-01-25T06:39:17;6.50;99.90
16674;DHT22;8450;52.654;10.326;2024-01-25T06:41:43;6.50;99.90
16674;DHT22;8450;52.654;10.326;2024-01-25T06:44:09;6.50;99.90
16674;DHT22;8450;52.654;10.326;2024-01-25T06:46:35;6.40;99.90
16674;DHT22;8450;52.654;10.326;2024-01-25T06:49:00;6.40;99.90
16674;DHT22;8450;52.654;10.326;2024-01-25T06:51:26;6.40;99.90
16674;DHT22;8450;52.654;10.326;2024-01-25T06:53:51;6.40;99.90
16674;DHT22;8450;52.654;10.326;2024-01-25T06:56:17;6.40;99.90
16674;DHT22;8450;52.654;10.326;2024-01-25T06:58:42;6.50;99.90
16674;DHT22;8450;52.654;10.326;2024-01-25T07:01:08;6.40;99.90
16674;DHT22;8450;52.654;10.326;2024-01-25T07:03:34;6.40;99.90
16674;DHT22;8450;52.654;10.326;2024-01-25T07:06:00;6.50;99.90
16674;DHT22;8450;52.654;10.326;2024-01-25T07:08:25;6.50;99.90
16674;DHT22;8450;52.654;10.326;2024-01-25T07:10:51;6.40;99.90
16674;DHT22;8450;52.654;10.326;2024-01-25T07:13:17;6.40;99.90
16674;DHT22;8450;52.654;10.326;2024-01-25T07:15:42;6.40;99.90
16674;DHT22;8450;52.654;10.326;2024-01-25T07:18:10;6.40;99.90
16674;DHT22;8450;52.654;10.326;2024-01-25T07:20:36;6.40;99.90
16674;DHT22;8450;52.654;10.326;2024-01-25T07:23:02;6.40;99.90
16674;DHT22;8450;52.654;10.326;2024-01-25T07:25:27;6.40;99.90
16674;DHT22;8450;52.654;10.326;2024-01-25T07:27:53;6.40;99.90
16674;DHT22;8450;52.654;10.326;2024-01-25T07:30:18;6.30;99.90
16674;DHT22;8450;52.654;10.326;2024-01-25T07:32:45;6.30;99.90
16674;DHT22;8450;52.654;10.326;2024-01-25T07:35:12;6.40;99.90
16674;DHT22;8450;52.654;10.326;2024-01-25T07:37:38;6.40;99.90
16674;DHT22;8450;52.654;10.326;2024-01-25T07:40:04;6.40;99.90
16674;DHT22;8450;52.654;10.326;2024-01-25T07:42:30;6.40;99.90
16674;DHT22;8450;52.654;10.326;2024-01-25T07:44:56;6.40;99.90
16674;DHT22;8450;52.654;10.326;2024-01-25T07:47:21;6.30;99.90
16674;DHT22;8450;52.654;10.326;2024-01-25T07:49:48;6.30;99.90
16674;DHT22;8450;52.654;10.326;2024-01-25T07:52:13;6.30;99.90
16674;DHT22;8450;52.654;10.326;2024-01-25T07:54:39;6.30;99.90
16674;DHT22;8450;52.654;10.326;2024-01-25T07:57:05;6.30;99.90
16674;DHT22;8450;52.654;10.326;2024-01-25T07:59:30;6.30;99.90
16674;DHT22;8450;52.654;10.326;2024-01-25T08:01:56;6.30;99.90
16674;DHT22;8450;52.654;10.326;2024-01-25T08:04:21;6.30;99.90
16674;DHT22;8450;52.654;10.326;2024-01-25T08:06:47;6.30;99.90
16674;DHT22;8450;52.654;10.326;2024-01-25T08:09:13;6.30;99.90
16674;DHT22;8450;52.654;10.326;2024-01-25T08:11:39;6.30;99.90
16674;DHT22;8450;52.654;10.326;2024-01-25T08:14:04;6.30;99.90
16674;DHT22;8450;52.654;10.326;2024-01-25T08:16:30;6.30;99.90
16674;DHT22;8450;52.654;10.326;2024-01-25T08:18:56;6.30;99.90
16674;DHT22;8450;52.654;10.326;2024-01-25T08:21:22;6.30;99.90
16674;DHT22;8450;52.654;10.326;2024-01-25T08:23:47;6.30;99.90
16674;DHT22;8450;52.654;10.326;2024-01-25T08:26:13;6.30;99.90
16674;DHT22;8450;52.654;10.326;2024-01-25T08:28:42;6.30;99.90
16674;DHT22;8450;52.654;10.326;2024-01-25T08:31:11;6.30;99.90
16674;DHT22;8450;52.654;10.326;2024-01-25T08:33:36;6.40;99.90
16674;DHT22;8450;52.654;10.326;2024-01-25T08:36:02;6.30;99.90
16674;DHT22;8450;52.654;10.326;2024-01-25T08:38:28;6.30;99.90
16674;DHT22;8450;52.654;10.326;2024-01-25T08:40:54;6.30;99.90
16674;DHT22;8450;52.654;10.326;2024-01-25T08:43:19;6.30;99.90
16674;DHT22;8450;52.654;10.326;2024-01-25T08:45:45;6.30;99.90
16674;DHT22;8450;52.654;10.326;2024-01-25T08:48:11;6.40;99.90
16674;DHT22;8450;52.654;10.326;2024-01-25T08:50:38;6.30;99.90
16674;DHT22;8450;52.654;10.326;2024-01-25T08:53:04;6.40;99.90
16674;DHT22;8450;52.654;10.326;2024-01-25T08:55:30;6.30;99.90
16674;DHT22;8450;52.654;10.326;2024-01-25T08:57:56;6.40;99.90
16674;DHT22;8450;52.654;10.326;2024-01-25T09:00:21;6.40;99.90
16674;DHT22;8450;52.654;10.326;2024-01-25T09:02:47;6.40;99.90
16674;DHT22;8450;52.654;10.326;2024-01-25T09:05:13;6.40;99.90
16674;DHT22;8450;52.654;10.326;2024-01-25T09:07:38;6.40;99.90
16674;DHT22;8450;52.654;10.326;2024-01-25T09:10:04;6.50;99.90
16674;DHT22;8450;52.654;10.326;2024-01-25T09:12:30;6.50;99.90
16674;DHT22;8450;52.654;10.326;2024-01-25T09:14:56;6.40;99.90
16674;DHT22;8450;52.654;10.326;2024-01-25T09:17:21;6.50;99.90
16674;DHT22;8450;52.654;10.326;2024-01-25T09:19:50;6.50;99.90
16674;DHT22;8450;52.654;10.326;2024-01-25T09:22:17;6.50;99.90
16674;DHT22;8450;52.654;10.326;2024-01-25T09:24:48;6.50;99.90
16674;DHT22;8450;52.654;10.326;2024-01-25T09:27:14;6.50;99.90
16674;DHT22;8450;52.654;10.326;2024-01-25T09:29:40;6.50;99.90
16674;DHT22;8450;52.654;10.326;2024-01-25T09:32:09;6.50;99.90
16674;DHT22;8450;52.654;10.326;2024-01-25T09:34:38;6.60;99.90
16674;DHT22;8450;52.654;10.326;2024-01-25T09:37:04;6.50;99.90
16674;DHT22;8450;52.654;10.326;2024-01-25T09:39:31;6.50;99.90
16674;DHT22;8450;52.654;10.326;2024-01-25T09:41:57;6.60;99.90
16674;DHT22;8450;52.654;10.326;2024-01-25T09:44:23;6.50;99.90
16674;DHT22;8450;52.654;10.326;2024-01-25T09:46:49;6.60;99.90
16674;DHT22;8450;52.654;10.326;2024-01-25T09:49:16;6.60;99.90
16674;DHT22;8450;52.654;10.326;2024-01-25T09:51:43;6.60;99.90
16674;DHT22;8450;52.654;10.326;2024-01-25T09:54:09;6.60;99.90
16674;DHT22;8450;52.654;10.326;2024-01-25T09:56:35;6.60;99.90
16674;DHT22;8450;52.654;10.326;2024-01-25T09:59:02;6.60;99.90
16674;DHT22;8450;52.654;10.326;2024-01-25T10:01:28;6.60;99.90
16674;DHT22;8450;52.654;10.326;2024-01-25T10:03:54;6.70;99.90
16674;DHT22;8450;52.654;10.326;2024-01-25T10:06:23;6.70;99.90
16674;DHT22;8450;52.654;10.326;2024-01-25T10:08:49;6.70;99.90
16674;DHT22;8450;52.654;10.326;2024-01-25T10:11:15;6.60;99.90
16674;DHT22;8450;52.654;10.326;2024-01-25T10:13:46;6.70;99.90
16674;DHT22;8450;52.654;10.326;2024-01-25T10:16:13;6.70;99.90
16674;DHT22;8450;52.654;10.326;2024-01-25T10:18:40;6.70;99.90
16674;DHT22;8450;52.654;10.326;2024-01-25T10:21:09;6.80;99.90
16674;DHT22;8450;52.654;10.326;2024-01-25T10:23:35;6.80;99.90
16674;DHT22;8450;52.654;10.326;2024-01-25T10:26:00;6.80;99.90
16674;DHT22;8450;52.654;10.326;2024-01-25T10:28:26;6.80;99.90
16674;DHT22;8450;52.654;10.326;2024-01-25T10:30:59;6.80;99.90
16674;DHT22;8450;52.654;10.326;2024-01-25T10:33:27;6.80;99.90
16674;DHT22;8450;52.654;10.326;2024-01-25T10:35:54;6.80;99.90
16674;DHT22;8450;52.654;10.326;2024-01-25T10:38:21;6.90;99.90
16674;DHT22;8450;52.654;10.326;2024-01-25T10:40:47;6.90;99.90
16674;DHT22;8450;52.654;10.326;2024-01-25T10:43:13;7.00;99.90
16674;DHT22;8450;52.654;10.326;2024-01-25T10:45:38;7.00;99.90
16674;DHT22;8450;52.654;10.326;2024-01-25T10:48:05;7.10;99.90
16674;DHT22;8450;52.654;10.326;2024-01-25T10:50:32;7.10;99.90
16674;DHT22;8450;52.654;10.326;2024-01-25T10:52:58;7.10;99.90
16674;DHT22;8450;52.654;10.326;2024-01-25T10:55:24;7.20;99.90
16674;DHT22;8450;52.654;10.326;2024-01-25T10:57:51;7.20;99.90
16674;DHT22;8450;52.654;10.326;2024-01-25T11:00:17;7.20;99.90
16674;DHT22;8450;52.654;10.326;2024-01-25T11:02:44;7.20;99.90
16674;DHT22;8450;52.654;10.326;2024-01-25T11:05:14;7.20;99.90
16674;DHT22;8450;52.654;10.326;2024-01-25T11:07:47;7.20;99.90
16674;DHT22;8450;52.654;10.326;2024-01-25T11:10:21;7.20;99.90
16674;DHT22;8450;52.654;10.326;2024-01-25T11:12:48;7.20;99.90
16674;DHT22;8450;52.654;10.326;2024-01-25T11:15:23;7.20;99.90
16674;DHT22;8450;52.654;10.326;2024-01-25T11:17:53;7.10;99.90
16674;DHT22;8450;52.654;10.326;2024-01-25T11:20:23;7.20;99.90
16674;DHT22;8450;52.654;10.326;2024-01-25T11:22:59;7.10;99.90
16674;DHT22;8450;52.654;10.326;2024-01-25T11:25:35;7.10;99.90
16674;DHT22;8450;52.654;10.326;2024-01-25T11:28:02;7.20;99.90
16674;DHT22;8450;52.654;10.326;2024-01-25T11:30:37;7.20;99.90
16674;DHT22;8450;52.654;10.326;2024-01-25T11:33:09;7.30;99.90
16674;DHT22;8450;52.654;10.326;2024-01-25T11:35:35;7.30;99.90
16674;DHT22;8450;52.654;10.326;2024-01-25T11:38:01;7.50;99.90
16674;DHT22;8450;52.654;10.326;2024-01-25T11:40:26;7.40;99.90
16674;DHT22;8450;52.654;10.326;2024-01-25T11:42:53;7.40;99.90
16674;DHT22;8450;52.654;10.326;2024-01-25T11:45:19;7.30;99.90
16674;DHT22;8450;52.654;10.326;2024-01-25T11:47:45;7.40;99.90
16674;DHT22;8450;52.654;10.326;2024-01-25T11:50:11;7.40;99.90
16674;DHT22;8450;52.654;10.326;2024-01-25T11:52:38;7.50;99.90
16674;DHT22;8450;52.654;10.326;2024-01-25T11:55:05;7.50;99.90
16674;DHT22;8450;52.654;10.326;2024-01-25T11:57:42;7.60;99.90
16674;DHT22;8450;52.654;10.326;2024-01-25T12:00:10;7.80;99.90
16674;DHT22;8450;52.654;10.326;2024-01-25T12:02:38;8.00;99.90
16674;DHT22;8450;52.654;10.326;2024-01-25T12:05:04;8.10;99.90
16674;DHT22;8450;52.654;10.326;2024-01-25T12:07:31;8.10;99.90
16674;DHT22;8450;52.654;10.326;2024-01-25T12:09:58;8.10;99.90
16674;DHT22;8450;52.654;10.326;2024-01-25T12:12:24;8.00;99.90
16674;DHT22;8450;52.654;10.326;2024-01-25T12:14:49;8.00;99.90
16674;DHT22;8450;52.654;10.326;2024-01-25T12:17:15;8.00;99.90
16674;DHT22;8450;52.654;10.326;2024-01-25T12:19:40;8.00;99.90
16674;DHT22;8450;52.654;10.326;2024-01-25T12:22:06;7.90;99.90
16674;DHT22;8450;52.654;10.326;2024-01-25T12:24:31;7.80;99.90
16674;DHT22;8450;52.654;10.326;2024-01-25T12:26:57;7.80;99.90
16674;DHT22;8450;52.654;10.326;2024-01-25T12:29:22;7.90;99.90
16674;DHT22;8450;52.654;10.326;2024-01-25T12:31:48;7.80;99.90
16674;DHT22;8450;52.654;10.326;2024-01-25T12:34:14;7.90;99.90
16674;DHT22;8450;52.654;10.326;2024-01-25T12:36:41;7.80;99.90
16674;DHT22;8450;52.654;10.326;2024-01-25T12:39:06;7.90;99.90
16674;DHT22;8450;52.654;10.326;2024-01-25T12:41:32;7.90;99.90
16674;DHT22;8450;52.654;10.326;2024-01-25T12:43:57;8.00;99.90
16674;DHT22;8450;52.654;10.326;2024-01-25T12:46:23;7.90;99.90
16674;DHT22;8450;52.654;10.326;2024-01-25T12:48:49;8.00;99.90
16674;DHT22;8450;52.654;10.326;2024-01-25T12:51:14;7.90;99.90
16674;DHT22;8450;52.654;10.326;2024-01-25T12:53:40;7.80;99.90
16674;DHT22;8450;52.654;10.326;2024-01-25T12:56:06;8.00;99.90
16674;DHT22;8450;52.654;10.326;2024-01-25T12:58:31;8.00;99.90
16674;DHT22;8450;52.654;10.326;2024-01-25T13:00:57;8.20;99.90
16674;DHT22;8450;52.654;10.326;2024-01-25T13:03:22;8.30;99.90
16674;DHT22;8450;52.654;10.326;2024-01-25T13:05:48;8.30;99.90
16674;DHT22;8450;52.654;10.326;2024-01-25T13:08:13;8.10;99.90
16674;DHT22;8450;52.654;10.326;2024-01-25T13:10:39;8.10;99.90
16674;DHT22;8450;52.654;10.326;2024-01-25T13:13:04;8.00;99.90
16674;DHT22;8450;52.654;10.326;2024-01-25T13:15:30;8.00;99.90
16674;DHT22;8450;52.654;10.326;2024-01-25T13:17:56;8.00;99.90
16674;DHT22;8450;52.654;10.326;2024-01-25T13:20:22;7.90;99.90
16674;DHT22;8450;52.654;10.326;2024-01-25T13:22:47;7.90;99.90
16674;DHT22;8450;52.654;10.326;2024-01-25T13:25:13;8.00;99.90
16674;DHT22;8450;52.654;10.326;2024-01-25T13:27:40;8.00;99.90
16674;DHT22;8450;52.654;10.326;2024-01-25T13:30:06;8.00;99.90
16674;DHT22;8450;52.654;10.326;2024-01-25T13:32:32;8.10;99.90
16674;DHT22;8450;52.654;10.326;2024-01-25T13:34:57;8.00;99.90
16674;DHT22;8450;52.654;10.326;2024-01-25T13:37:23;8.00;99.90
16674;DHT22;8450;52.654;10.326;2024-01-25T13:39:48;8.10;99.90
16674;DHT22;8450;52.654;10.326;2024-01-25T13:42:14;8.00;99.90
16674;DHT22;8450;52.654;10.326;2024-01-25T13:44:39;8.00;99.90
16674;DHT22;8450;52.654;10.326;2024-01-25T13:47:05;8.00;99.90
16674;DHT22;8450;52.654;10.326;2024-01-25T13:49:30;8.10;99.90
16674;DHT22;8450;52.654;10.326;2024-01-25T13:51:56;7.90;99.90
16674;DHT22;8450;52.654;10.326;2024-01-25T13:54:21;7.90;99.90
16674;DHT22;8450;52.654;10.326;2024-01-25T13:56:47;7.80;99.90
16674;DHT22;8450;52.654;10.326;2024-01-25T13:59:12;7.80;99.90
16674;DHT22;8450;52.654;10.326;2024-01-25T14:01:38;7.70;99.90
16674;DHT22;8450;52.654;10.326;2024-01-25T14:04:04;7.60;99.90
16674;DHT22;8450;52.654;10.326;2024-01-25T14:06:29;7.70;99.90
16674;DHT22;8450;52.654;10.326;2024-01-25T14:08:55;7.60;99.90
16674;DHT22;8450;52.654;10.326;2024-01-25T14:11:20;7.60;99.90
16674;DHT22;8450;52.654;10.326;2024-01-25T14:13:46;7.40;99.90
16674;DHT22;8450;52.654;10.326;2024-01-25T14:16:12;7.50;99.90
16674;DHT22;8450;52.654;10.326;2024-01-25T14:18:42;7.60;99.90
16674;DHT22;8450;52.654;10.326;2024-01-25T14:21:09;7.60;99.90
16674;DHT22;8450;52.654;10.326;2024-01-25T14:23:34;7.60;99.90
16674;DHT22;8450;52.654;10.326;2024-01-25T14:26:00;7.70;99.90
16674;DHT22;8450;52.654;10.326;2024-01-25T14:28:25;7.70;99.90
16674;DHT22;8450;52.654;10.326;2024-01-25T14:30:51;7.70;99.90
16674;DHT22;8450;52.654;10.326;2024-01-25T14:33:16;7.70;99.90
16674;DHT22;8450;52.654;10.326;2024-01-25T14:35:42;7.60;99.90
16674;DHT22;8450;52.654;10.326;2024-01-25T14:38:07;7.60;99.90
16674;DHT22;8450;52.654;10.326;2024-01-25T14:40:33;7.50;99.90
16674;DHT22;8450;52.654;10.326;2024-01-25T14:42:59;7.50;99.90
16674;DHT22;8450;52.654;10.326;2024-01-25T14:45:25;7.40;99.90
16674;DHT22;8450;52.654;10.326;2024-01-25T14:47:51;7.40;99.90
16674;DHT22;8450;52.654;10.326;2024-01-25T14:50:17;7.40;99.90
16674;DHT22;8450;52.654;10.326;2024-01-25T14:52:43;7.40;99.90
16674;DHT22;8450;52.654;10.326;2024-01-25T14:55:08;7.30;99.90
16674;DHT22;8450;52.654;10.326;2024-01-25T14:57:34;7.30;99.90
16674;DHT22;8450;52.654;10.326;2024-01-25T15:00:00;7.30;99.90
16674;DHT22;8450;52.654;10.326;2024-01-25T15:02:25;7.30;99.90
16674;DHT22;8450;52.654;10.326;2024-01-25T15:04:51;7.30;99.90
16674;DHT22;8450;52.654;10.326;2024-01-25T15:07:17;7.30;99.90
16674;DHT22;8450;52.654;10.326;2024-01-25T15:09:47;7.30;99.90
16674;DHT22;8450;52.654;10.326;2024-01-25T15:12:13;7.30;99.90
16674;DHT22;8450;52.654;10.326;2024-01-25T15:14:39;7.30;99.90
16674;DHT22;8450;52.654;10.326;2024-01-25T15:17:04;7.30;99.90
16674;DHT22;8450;52.654;10.326;2024-01-25T15:19:30;7.30;99.90
16674;DHT22;8450;52.654;10.326;2024-01-25T15:21:55;7.20;99.90
16674;DHT22;8450;52.654;10.326;2024-01-25T15:24:21;7.20;99.90
16674;DHT22;8450;52.654;10.326;2024-01-25T15:26:46;7.30;99.90
16674;DHT22;8450;52.654;10.326;2024-01-25T15:29:12;7.20;99.90
16674;DHT22;8450;52.654;10.326;2024-01-25T15:31:37;7.20;99.90
16674;DHT22;8450;52.654;10.326;2024-01-25T15:34:03;7.20;99.90
16674;DHT22;8450;52.654;10.326;2024-01-25T15:36:28;7.20;99.90